createdAt,value
2023-01-25T00:02:58.295Z,18.43
2023-01-25T00:08:21.445Z,18.39
2023-01-25T00:13:43.543Z,18.35
2023-01-25T00:19:07.136Z,18.29
2023-01-25T00:24:28.963Z,18.25
2023-01-25T00:29:50.730Z,18.22
2023-01-25T00:35:13.134Z,18.18
2023-01-25T00:40:34.935Z,18.12
2023-01-25T00:46:03.504Z,18.09
2023-01-25T00:51:25.425Z,18.04
2023-01-25T00:56:47.133Z,18.00
2023-01-25T01:02:08.992Z,17.97
2023-01-25T01:07:30.731Z,17.94
2023-01-25T01:12:52.598Z,17.89
2023-01-25T01:18:14.386Z,17.83
2023-01-25T01:23:36.972Z,17.83
2023-01-25T01:28:59.284Z,17.78
2023-01-25T01:34:21.048Z,17.74
2023-01-25T01:39:42.897Z,17.71
2023-01-25T01:45:43.329Z,17.70
2023-01-25T01:51:14.708Z,17.67
2023-01-25T01:56:47.056Z,17.62
2023-01-25T02:02:08.896Z,17.58
2023-01-25T02:07:36.397Z,17.57
2023-01-25T02:12:59.077Z,17.53
2023-01-25T02:18:20.900Z,17.52
2023-01-25T02:23:51.704Z,17.51
2023-01-25T02:29:14.901Z,17.48
2023-01-25T02:34:36.613Z,17.45
2023-01-25T02:39:58.306Z,17.43
2023-01-25T02:45:27.937Z,17.41
2023-01-25T02:50:49.612Z,17.38
2023-01-25T02:56:11.353Z,17.38
2023-01-25T03:01:35.028Z,17.35
2023-01-25T03:06:56.849Z,17.34
2023-01-25T03:12:18.593Z,17.31
2023-01-25T03:17:40.334Z,17.30
2023-01-25T03:23:02.376Z,17.28
2023-01-25T03:28:24.155Z,17.27
2023-01-25T03:33:46.513Z,17.23
2023-01-25T03:39:08.232Z,17.22
2023-01-25T03:44:29.956Z,17.20
2023-01-25T03:49:51.684Z,17.16
2023-01-25T03:55:13.494Z,17.16
2023-01-25T04:00:35.348Z,17.14
2023-01-25T04:05:58.180Z,17.12
2023-01-25T04:11:19.928Z,17.11
2023-01-25T04:16:41.778Z,17.09
2023-01-25T04:22:03.767Z,17.08
2023-01-25T04:27:25.529Z,17.07
2023-01-25T04:32:47.487Z,17.04
2023-01-25T04:38:10.474Z,17.03
2023-01-25T04:43:32.279Z,17.00
2023-01-25T04:48:54.034Z,16.99
2023-01-25T04:54:15.751Z,16.97
2023-01-25T04:59:37.537Z,16.96
2023-01-25T05:04:59.346Z,16.95
2023-01-25T05:10:21.409Z,16.93
2023-01-25T05:15:43.349Z,16.91
2023-01-25T05:21:05.175Z,16.88
2023-01-25T05:26:45.690Z,16.87
2023-01-25T05:32:09.427Z,16.87
2023-01-25T05:37:31.149Z,16.85
2023-01-25T05:43:02.592Z,16.85
2023-01-25T05:48:24.635Z,16.82
2023-01-25T05:53:46.320Z,16.80
2023-01-25T05:59:08.212Z,16.78
2023-01-25T06:04:30.041Z,16.77
2023-01-25T06:09:51.730Z,16.90
2023-01-25T06:15:13.538Z,17.33
2023-01-25T06:20:35.253Z,17.79
2023-01-25T06:26:02.316Z,18.19
2023-01-25T06:31:24.108Z,18.54
2023-01-25T06:36:45.923Z,18.95
2023-01-25T06:42:07.660Z,19.33
2023-01-25T06:47:29.405Z,19.53
2023-01-25T06:52:54.938Z,19.61
2023-01-25T06:58:16.558Z,19.55
2023-01-25T07:03:38.325Z,19.46
2023-01-25T07:09:08.459Z,19.31
2023-01-25T07:14:31.228Z,19.12
2023-01-25T07:19:52.943Z,18.93
2023-01-25T07:25:14.710Z,18.75
2023-01-25T07:30:36.421Z,18.60
2023-01-25T07:36:06.569Z,18.49
2023-01-25T07:41:28.587Z,18.35
2023-01-25T07:46:50.402Z,18.22
2023-01-25T07:52:12.173Z,18.12
2023-01-25T07:57:33.848Z,18.03
2023-01-25T08:02:55.533Z,17.94
2023-01-25T08:08:17.231Z,17.92
2023-01-25T08:13:40.243Z,18.03
2023-01-25T08:19:03.587Z,18.25
2023-01-25T08:24:25.653Z,18.50
2023-01-25T08:29:47.576Z,18.72
2023-01-25T08:35:09.827Z,18.90
2023-01-25T08:40:31.769Z,19.06
2023-01-25T08:45:57.828Z,19.18
2023-01-25T08:51:19.546Z,19.25
2023-01-25T08:56:42.355Z,19.25
2023-01-25T09:02:04.055Z,19.22
2023-01-25T09:07:25.782Z,19.16
2023-01-25T09:12:47.475Z,19.10
2023-01-25T09:18:09.361Z,19.02
2023-01-25T09:23:31.752Z,18.94
2023-01-25T09:28:55.759Z,18.87
2023-01-25T09:34:17.512Z,18.80
2023-01-25T09:39:39.261Z,18.71
2023-01-25T09:45:10.150Z,18.69
2023-01-25T09:50:31.855Z,18.64
2023-01-25T09:56:04.785Z,18.63
2023-01-25T10:01:47.955Z,18.60
2023-01-25T10:07:20.128Z,18.56
2023-01-25T10:12:41.987Z,18.53
2023-01-25T10:18:16.359Z,18.53
2023-01-25T10:23:54.163Z,18.52
2023-01-25T10:29:19.740Z,18.51
2023-01-25T10:34:56.395Z,18.46
2023-01-25T10:40:25.129Z,18.46
2023-01-25T10:45:48.319Z,18.45
2023-01-25T10:51:10.043Z,18.43
2023-01-25T10:56:38.852Z,18.44
2023-01-25T11:02:37.582Z,18.42
2023-01-25T11:08:16.284Z,18.38
2023-01-25T11:13:41.620Z,18.38
2023-01-25T11:19:24.027Z,18.35
2023-01-25T11:24:46.108Z,18.32
2023-01-25T11:30:16.144Z,18.31
2023-01-25T11:35:49.569Z,18.29
2023-01-25T11:41:21.106Z,18.25
2023-01-25T11:47:04.754Z,18.23
2023-01-25T11:52:44.622Z,18.19
2023-01-25T11:58:37.116Z,18.12
2023-01-25T12:04:20.074Z,18.17
2023-01-25T12:09:51.392Z,18.34
2023-01-25T12:15:35.636Z,18.48
2023-01-25T12:21:26.342Z,18.57
2023-01-25T12:27:29.367Z,18.58
2023-01-25T12:33:12.915Z,18.54
2023-01-25T12:38:43.665Z,18.57
2023-01-25T12:44:33.571Z,18.66
2023-01-25T12:50:51.140Z,18.75
2023-01-25T12:56:33.951Z,18.88
2023-01-25T13:02:38.466Z,18.94
2023-01-25T13:08:30.776Z,18.95
2023-01-25T13:13:53.630Z,18.95
2023-01-25T13:19:38.437Z,19.00
2023-01-25T13:25:02.966Z,19.06
2023-01-25T13:30:34.623Z,19.05
2023-01-25T13:35:56.583Z,19.04
2023-01-25T13:41:18.423Z,19.01
2023-01-25T13:46:40.188Z,19.00
2023-01-25T13:52:04.580Z,18.97
2023-01-25T14:02:54.996Z,18.84
2023-01-25T14:08:20.216Z,18.79
2023-01-25T14:14:13.384Z,18.70
2023-01-25T14:19:44.984Z,18.61
2023-01-25T14:25:12.522Z,18.53
2023-01-25T14:30:35.883Z,18.47
2023-01-25T14:36:24.097Z,18.45
2023-01-25T14:42:00.478Z,18.41
2023-01-25T14:47:31.305Z,18.43
2023-01-25T14:52:53.043Z,18.46
2023-01-25T14:58:21.527Z,18.52
2023-01-25T15:03:45.143Z,18.56
2023-01-25T15:09:29.578Z,18.62
2023-01-25T15:14:53.555Z,18.63
2023-01-25T15:20:29.149Z,18.66
2023-01-25T15:25:53.823Z,18.65
2023-01-25T15:31:22.264Z,18.66
2023-01-25T15:36:44.180Z,18.62
2023-01-25T15:42:06.445Z,18.62
2023-01-25T15:47:28.198Z,18.60
2023-01-25T15:52:50.203Z,18.57
2023-01-25T15:58:23.002Z,18.52
2023-01-25T16:03:45.091Z,18.42
2023-01-25T16:09:36.078Z,18.36
2023-01-25T16:15:00.722Z,18.31
2023-01-25T16:20:22.488Z,18.22
2023-01-25T16:25:44.993Z,18.17
2023-01-25T16:31:06.892Z,18.09
2023-01-25T16:36:29.342Z,18.03
2023-01-25T16:41:51.511Z,18.03
2023-01-25T16:47:15.432Z,18.06
2023-01-25T16:52:37.111Z,18.10
2023-01-25T16:57:59.028Z,18.22
2023-01-25T17:03:20.691Z,18.45
2023-01-25T17:08:42.412Z,18.70
2023-01-25T17:14:06.208Z,18.93
2023-01-25T17:19:27.914Z,19.15
2023-01-25T17:24:50.143Z,19.24
2023-01-25T17:30:12.608Z,19.22
2023-01-25T17:35:37.283Z,19.14
2023-01-25T17:41:04.037Z,19.02
2023-01-25T17:46:33.387Z,18.88
2023-01-25T17:51:55.190Z,18.76
2023-01-25T17:57:19.336Z,18.71
2023-01-25T18:02:45.197Z,18.74
2023-01-25T18:08:07.612Z,18.81
2023-01-25T18:13:29.397Z,19.10
2023-01-25T18:18:53.317Z,19.42
2023-01-25T18:24:14.996Z,19.73
2023-01-25T18:29:47.853Z,19.86
2023-01-25T18:35:09.856Z,19.91
2023-01-25T18:40:31.811Z,19.87
2023-01-25T18:45:58.202Z,19.78
2023-01-25T18:51:19.950Z,19.68
2023-01-25T18:56:41.678Z,19.68
2023-01-25T19:02:04.063Z,19.74
2023-01-25T19:07:26.045Z,19.79
2023-01-25T19:12:47.805Z,19.88
2023-01-25T19:18:09.470Z,20.15
2023-01-25T19:23:36.054Z,20.44
2023-01-25T19:28:58.456Z,20.58
2023-01-25T19:34:20.175Z,20.66
2023-01-25T19:39:41.962Z,20.65
2023-01-25T19:45:03.919Z,20.50
2023-01-25T19:50:25.601Z,20.40
2023-01-25T19:55:47.284Z,20.34
2023-01-25T20:01:20.279Z,20.38
2023-01-25T20:06:42.569Z,20.35
2023-01-25T20:12:07.986Z,20.38
2023-01-25T20:17:29.672Z,20.63
2023-01-25T20:22:53.227Z,20.96
2023-01-25T20:28:14.974Z,21.25
2023-01-25T20:33:36.655Z,21.48
2023-01-25T20:38:58.623Z,21.68
2023-01-25T20:44:21.253Z,21.81
2023-01-25T20:49:43.136Z,21.88
2023-01-25T20:55:05.483Z,21.95
2023-01-25T21:00:27.220Z,22.05
2023-01-25T21:05:53.301Z,22.14
2023-01-25T21:11:15.314Z,22.22
2023-01-25T21:16:37.126Z,22.21
2023-01-25T21:21:58.884Z,22.13
2023-01-25T21:27:20.606Z,22.06
2023-01-25T21:32:43.456Z,22.00
2023-01-25T21:38:05.154Z,21.91
2023-01-25T21:43:27.007Z,21.72
2023-01-25T21:49:07.271Z,21.44
2023-01-25T21:54:31.752Z,21.17
2023-01-25T21:59:54.501Z,20.97
2023-01-25T22:05:16.598Z,20.78
2023-01-25T22:10:38.295Z,20.59
2023-01-25T22:16:01.643Z,20.41
2023-01-25T22:21:25.811Z,20.27
2023-01-25T22:26:59.807Z,20.13
2023-01-25T22:32:21.500Z,19.97
2023-01-25T22:37:43.274Z,19.85
2023-01-25T22:43:04.946Z,19.75
2023-01-25T22:48:26.869Z,19.65
2023-01-25T22:53:48.664Z,19.56
2023-01-25T22:59:14.857Z,19.48
2023-01-25T23:04:36.825Z,19.39
2023-01-25T23:09:58.602Z,19.28
2023-01-25T23:15:20.340Z,19.19
2023-01-25T23:20:42.086Z,19.13
2023-01-25T23:26:03.965Z,19.05
2023-01-25T23:31:26.426Z,18.98
2023-01-25T23:36:48.162Z,18.90
2023-01-25T23:42:09.879Z,18.85
2023-01-25T23:47:31.621Z,18.77
2023-01-25T23:52:53.335Z,18.73
2023-01-25T23:58:15.082Z,18.69
